Un Karadeniz — TCTD3 — position and weather

sailwx.info

Track history (hours):
 
Tides and Currents Weather Stations Pressure Air Temp Water Temp Dewpoint Dewpoint Depression Visibility Wind Speed Wind Dir Waves Ship Positions

Un Karadeniz

Last reported at 2017-Oct-20 02:05 UTC. Time now 2017-Oct-20 08:57 UTC.
Position N 36°08' E 030°26'.

Length 193 m; draft 6.7 m.

Type: Ship (hazmat cat A). MMSI: 271002571.

Date/timePositionNaut miles runAvg speedWind from/ knotsBaromVisibWave heightAir tempDewpointWater temp
2017-Oct-20 02:05N 36°08' E 030°26'221.1
2017-Oct-20 02:00N 36°08' E 030°28'1021.0
2017-Oct-20 01:30N 36°07' E 030°41'1020.5
2017-Oct-20 01:00N 36°06' E 030°54'1020.3
2017-Oct-20 00:30N 36°05' E 031°06'1020.3
2017-Oct-20 00:00N 36°04' E 031°19'1020.2
2017-Oct-19 23:30N 36°03' E 031°31'1020.1
2017-Oct-19 23:00N 36°03' E 031°44'1020.4
2017-Oct-19 22:30N 36°02' E 031°56'1120.3
2017-Oct-19 21:59N 36°01' E 032°09'1020.2
2017-Oct-19 21:28N 36°00' E 032°22'920.1
2017-Oct-19 21:00N 35°59' E 032°33'10519.2
2017-Oct-19 15:34N 36°39' E 034°34'119.7
2017-Oct-19 15:30N 36°40' E 034°35'814.7
2017-Oct-19 14:58N 36°47' E 034°39'1 2.3
2017-Oct-19 14:27N 36°48' E 034°39'0 0.0
2017-Oct-19 14:01N 36°48' E 034°39'0 0.0
2017-Oct-19 13:31N 36°48' E 034°39'0 0.0
2017-Oct-19 13:01N 36°48' E 034°39'0 0.0
2017-Oct-19 12:31N 36°48' E 034°39'0 0.0
2017-Oct-19 00:21N 36°48' E 034°39'0 0.0
2017-Oct-18 22:13N 36°48' E 034°39'0 0.0
2017-Oct-18 22:01N 36°48' E 034°39'0 0.0
2017-Oct-18 21:30N 36°48' E 034°39'0 0.0
2017-Oct-18 20:40N 36°48' E 034°39'0 0.0
2017-Oct-18 20:31N 36°48' E 034°39'0 0.0
2017-Oct-18 20:01N 36°48' E 034°39'0 0.0
2017-Oct-18 19:30N 36°48' E 034°39'10114.6
2017-Oct-18 12:36N 35°59' E 032°50'218.9
2017-Oct-18 12:29N 35°58' E 032°48'919.6
2017-Oct-18 12:00N 35°59' E 032°36'2219.5
2017-Oct-18 10:52N 35°60' E 032°09'719.4
2017-Oct-18 10:30N 36°00' E 032°00'1119.5
2017-Oct-18 09:57N 36°00' E 031°47'919.6
2017-Oct-18 09:30N 36°00' E 031°36'1819.7
2017-Oct-18 08:36N 36°01' E 031°14'219.6
2017-Oct-18 08:30N 36°01' E 031°12'1019.4
2017-Oct-18 08:00N 36°01' E 030°60'1019.3
2017-Oct-18 07:30N 36°02' E 030°48'1019.3
2017-Oct-18 07:00N 36°02' E 030°36'48518.4
2017-Oct-17 04:36N 37°39' E 020°43'220.8
2017-Oct-17 04:30N 37°41' E 020°41'1420.5
2017-Oct-17 03:49N 37°52' E 020°30'1420.5
2017-Oct-17 03:07N 38°04' E 020°21'720.5
2017-Oct-17 02:46N 38°10' E 020°15'620.3
2017-Oct-17 02:29N 38°15' E 020°12'1120.3
2017-Oct-17 01:58N 38°24' E 020°04'1120.2
2017-Oct-17 01:25N 38°33' E 019°57'920.0
2017-Oct-17 00:58N 38°41' E 019°51'920.2
2017-Oct-17 00:30N 38°49' E 019°44'1020.4
2017-Oct-17 00:00N 38°58' E 019°37'1020.5
2017-Oct-16 23:30N 39°06' E 019°30'1020.4
2017-Oct-16 23:00N 39°15' E 019°23'1120.2
2017-Oct-16 22:27N 39°24' E 019°15'920.5
2017-Oct-16 22:00N 39°32' E 019°09'1020.5
2017-Oct-16 21:30N 39°40' E 019°02'1020.6
2017-Oct-16 21:00N 39°49' E 018°54'1020.6
2017-Oct-16 20:30N 39°58' E 018°47'1120.9
2017-Oct-16 20:00N 40°07' E 018°40'1020.4
2017-Oct-16 19:30N 40°15' E 018°33'1121.1
2017-Oct-16 19:00N 40°24' E 018°26'1020.9
2017-Oct-16 18:30N 40°33' E 018°19'1020.7
2017-Oct-16 18:00N 40°41' E 018°10'1020.5
2017-Oct-16 17:30N 40°48' E 018°00'1020.7
2017-Oct-16 17:00N 40°55' E 017°50'1120.8
2017-Oct-16 16:30N 41°02' E 017°39'1020.6
2017-Oct-16 16:01N 41°08' E 017°28'14320.5
2017-Oct-16 09:01N 42°55' E 015°20'520.5
2017-Oct-16 08:48N 42°59' E 015°16'2920.4
2017-Oct-16 07:22N 43°22' E 014°52'720.5
2017-Oct-16 07:00N 43°28' E 014°46'1020.2
2017-Oct-16 06:30N 43°35' E 014°37'1020.2
2017-Oct-16 05:59N 43°44' E 014°28'1020.0
2017-Oct-16 05:30N 43°51' E 014°20'1020.1
2017-Oct-16 05:00N 43°59' E 014°11'1020.2
2017-Oct-16 04:30N 44°07' E 014°03'1020.4
2017-Oct-16 04:00N 44°16' E 013°55'1020.3
2017-Oct-16 03:31N 44°24' E 013°47'1019.9
2017-Oct-16 03:00N 44°33' E 013°39'1019.9
2017-Oct-16 02:30N 44°41' E 013°32'1020.2
2017-Oct-16 02:00N 44°49' E 013°24'1019.7
2017-Oct-16 01:30N 44°58' E 013°16'1019.6
2017-Oct-16 01:00N 45°06' E 013°09'1019.5
2017-Oct-16 00:30N 45°15' E 013°04'917.9
2017-Oct-16 00:00N 45°24' E 013°06'1019.5
2017-Oct-15 23:30N 45°30' E 013°16'1019.0
2017-Oct-15 23:00N 45°36' E 013°27'918.9
2017-Oct-15 22:30N 45°39' E 013°40'4 7.0
2017-Oct-15 22:00N 45°39' E 013°45'0 0.0
2017-Oct-15 21:29N 45°39' E 013°45'0 0.0
2017-Oct-15 20:53N 45°39' E 013°45'0 0.0
2017-Oct-15 20:29N 45°39' E 013°45'0 0.0
2017-Oct-15 19:59N 45°39' E 013°45'0 0.0
2017-Oct-15 19:26N 45°39' E 013°45'0 0.0
2017-Oct-15 18:58N 45°39' E 013°45'0 0.0
2017-Oct-15 18:22N 45°39' E 013°45'0 0.0
2017-Oct-15 17:58N 45°39' E 013°45'0 0.0
2017-Oct-15 17:28N 45°39' E 013°45'0 0.0
2017-Oct-15 17:00N 45°39' E 013°45'0 0.0
2017-Oct-15 16:30N 45°39' E 013°45'0 0.0
2017-Oct-15 15:57N 45°39' E 013°45'0 0.0
2017-Oct-15 15:27N 45°39' E 013°45'0 0.0
2017-Oct-15 15:00N 45°39' E 013°45'0 0.0
2017-Oct-15 13:59N 45°39' E 013°45'0 0.0
2017-Oct-15 13:23N 45°39' E 013°45'0 0.0
2017-Oct-15 12:53N 45°39' E 013°45'0 0.0
2017-Oct-15 12:29N 45°39' E 013°45'0 0.0
2017-Oct-15 11:55N 45°39' E 013°45'0 0.0
2017-Oct-15 11:28N 45°39' E 013°45'0 0.0
2017-Oct-15 10:58N 45°39' E 013°45'0 0.0
2017-Oct-15 10:28N 45°39' E 013°45'0 0.0
2017-Oct-15 10:00N 45°39' E 013°45'0 0.0
2017-Oct-15 09:30N 45°39' E 013°45'0 0.0
2017-Oct-15 09:00N 45°39' E 013°45'0 0.0
2017-Oct-15 08:30N 45°39' E 013°45'0 0.0
2017-Oct-15 08:00N 45°39' E 013°45'0 0.0
2017-Oct-15 07:29N 45°39' E 013°45'0 0.1
2017-Oct-15 07:00N 45°39' E 013°45'4 8.8
2017-Oct-15 06:30N 45°38' E 013°39'1019.1
2017-Oct-15 06:00N 45°33' E 013°28'1019.8
2017-Oct-15 05:30N 45°26' E 013°18'1018.9
2017-Oct-15 05:00N 45°16' E 013°15'1020.1
2017-Oct-15 04:30N 45°07' E 013°18'1020.1
2017-Oct-15 04:00N 44°58' E 013°24'1020.2
2017-Oct-15 03:30N 44°49' E 013°32'1020.2
2017-Oct-15 03:00N 44°40' E 013°39'1020.3
2017-Oct-15 02:30N 44°32' E 013°47'1020.3
2017-Oct-15 02:00N 44°23' E 013°54'1020.5
2017-Oct-15 01:30N 44°15' E 014°02'1020.4
2017-Oct-15 01:00N 44°07' E 014°10'1020.3
2017-Oct-15 00:30N 43°59' E 014°20'1020.2
2017-Oct-15 00:00N 43°52' E 014°30'1020.3
2017-Oct-14 23:30N 43°45' E 014°40'1020.1
2017-Oct-14 22:59N 43°37' E 014°50'1020.2
2017-Oct-14 22:30N 43°30' E 014°59'1019.9
2017-Oct-14 22:00N 43°23' E 015°09'1920.2
2017-Oct-14 21:04N 43°10' E 015°27'520.3
2017-Oct-14 20:50N 43°07' E 015°32'720.4
2017-Oct-14 20:29N 43°01' E 015°39'1220.5
2017-Oct-14 19:53N 42°52' E 015°50'24019.7
2017-Oct-14 07:41N 39°46' E 019°12'719.7
2017-Oct-14 07:19N 39°40' E 019°17'619.8
2017-Oct-14 07:00N 39°34' E 019°20'1019.8
2017-Oct-14 06:30N 39°26' E 019°26'2819.9
2017-Oct-14 05:06N 39°01' E 019°43'320.1
2017-Oct-14 04:59N 38°58' E 019°44'53918.5
2017-Oct-12 23:52N 36°07' E 030°29'  
Track history (hours):
 
Tides and Currents Weather Stations Pressure Air Temp Water Temp Dewpoint Dewpoint Depression Visibility Wind Speed Wind Dir Waves Ship Positions

Un Karadeniz

Last reported at 2017-Oct-20 02:05 UTC. Time now 2017-Oct-20 08:57 UTC.
Position N 36°08' E 030°26'.

Length 193 m; draft 6.7 m.

Type: Ship (hazmat cat A). MMSI: 271002571.

Date/timePositionNaut miles runAvg speedWind from/ knotsBaromVisibWave heightAir tempDewpointWater temp
2017-Oct-20 02:05N 36°08' E 030°26'221.1
2017-Oct-20 02:00N 36°08' E 030°28'1021.0
2017-Oct-20 01:30N 36°07' E 030°41'1020.5
2017-Oct-20 01:00N 36°06' E 030°54'1020.3
2017-Oct-20 00:30N 36°05' E 031°06'1020.3
2017-Oct-20 00:00N 36°04' E 031°19'1020.2
2017-Oct-19 23:30N 36°03' E 031°31'1020.1
2017-Oct-19 23:00N 36°03' E 031°44'1020.4
2017-Oct-19 22:30N 36°02' E 031°56'1120.3
2017-Oct-19 21:59N 36°01' E 032°09'1020.2
2017-Oct-19 21:28N 36°00' E 032°22'920.1
2017-Oct-19 21:00N 35°59' E 032°33'10519.2
2017-Oct-19 15:34N 36°39' E 034°34'119.7
2017-Oct-19 15:30N 36°40' E 034°35'814.7
2017-Oct-19 14:58N 36°47' E 034°39'1 2.3
2017-Oct-19 14:27N 36°48' E 034°39'0 0.0
2017-Oct-19 14:01N 36°48' E 034°39'0 0.0
2017-Oct-19 13:31N 36°48' E 034°39'0 0.0
2017-Oct-19 13:01N 36°48' E 034°39'0 0.0
2017-Oct-19 12:31N 36°48' E 034°39'0 0.0
2017-Oct-19 00:21N 36°48' E 034°39'0 0.0
2017-Oct-18 22:13N 36°48' E 034°39'0 0.0
2017-Oct-18 22:01N 36°48' E 034°39'0 0.0
2017-Oct-18 21:30N 36°48' E 034°39'0 0.0
2017-Oct-18 20:40N 36°48' E 034°39'0 0.0
2017-Oct-18 20:31N 36°48' E 034°39'0 0.0
2017-Oct-18 20:01N 36°48' E 034°39'0 0.0
2017-Oct-18 19:30N 36°48' E 034°39'10114.6
2017-Oct-18 12:36N 35°59' E 032°50'218.9
2017-Oct-18 12:29N 35°58' E 032°48'919.6
2017-Oct-18 12:00N 35°59' E 032°36'2219.5
2017-Oct-18 10:52N 35°60' E 032°09'719.4
2017-Oct-18 10:30N 36°00' E 032°00'1119.5
2017-Oct-18 09:57N 36°00' E 031°47'919.6
2017-Oct-18 09:30N 36°00' E 031°36'1819.7
2017-Oct-18 08:36N 36°01' E 031°14'219.6
2017-Oct-18 08:30N 36°01' E 031°12'1019.4
2017-Oct-18 08:00N 36°01' E 030°60'1019.3
2017-Oct-18 07:30N 36°02' E 030°48'1019.3
2017-Oct-18 07:00N 36°02' E 030°36'48518.4
2017-Oct-17 04:36N 37°39' E 020°43'220.8
2017-Oct-17 04:30N 37°41' E 020°41'1420.5
2017-Oct-17 03:49N 37°52' E 020°30'1420.5
2017-Oct-17 03:07N 38°04' E 020°21'720.5
2017-Oct-17 02:46N 38°10' E 020°15'620.3
2017-Oct-17 02:29N 38°15' E 020°12'1120.3
2017-Oct-17 01:58N 38°24' E 020°04'1120.2
2017-Oct-17 01:25N 38°33' E 019°57'920.0
2017-Oct-17 00:58N 38°41' E 019°51'920.2
2017-Oct-17 00:30N 38°49' E 019°44'1020.4
2017-Oct-17 00:00N 38°58' E 019°37'1020.5
2017-Oct-16 23:30N 39°06' E 019°30'1020.4
2017-Oct-16 23:00N 39°15' E 019°23'1120.2
2017-Oct-16 22:27N 39°24' E 019°15'920.5
2017-Oct-16 22:00N 39°32' E 019°09'1020.5
2017-Oct-16 21:30N 39°40' E 019°02'1020.6
2017-Oct-16 21:00N 39°49' E 018°54'1020.6
2017-Oct-16 20:30N 39°58' E 018°47'1120.9
2017-Oct-16 20:00N 40°07' E 018°40'1020.4
2017-Oct-16 19:30N 40°15' E 018°33'1121.1
2017-Oct-16 19:00N 40°24' E 018°26'1020.9
2017-Oct-16 18:30N 40°33' E 018°19'1020.7
2017-Oct-16 18:00N 40°41' E 018°10'1020.5
2017-Oct-16 17:30N 40°48' E 018°00'1020.7
2017-Oct-16 17:00N 40°55' E 017°50'1120.8
2017-Oct-16 16:30N 41°02' E 017°39'1020.6
2017-Oct-16 16:01N 41°08' E 017°28'14320.5
2017-Oct-16 09:01N 42°55' E 015°20'520.5
2017-Oct-16 08:48N 42°59' E 015°16'2920.4
2017-Oct-16 07:22N 43°22' E 014°52'720.5
2017-Oct-16 07:00N 43°28' E 014°46'1020.2
2017-Oct-16 06:30N 43°35' E 014°37'1020.2
2017-Oct-16 05:59N 43°44' E 014°28'1020.0
2017-Oct-16 05:30N 43°51' E 014°20'1020.1
2017-Oct-16 05:00N 43°59' E 014°11'1020.2
2017-Oct-16 04:30N 44°07' E 014°03'1020.4
2017-Oct-16 04:00N 44°16' E 013°55'1020.3
2017-Oct-16 03:31N 44°24' E 013°47'1019.9
2017-Oct-16 03:00N 44°33' E 013°39'1019.9
2017-Oct-16 02:30N 44°41' E 013°32'1020.2
2017-Oct-16 02:00N 44°49' E 013°24'1019.7
2017-Oct-16 01:30N 44°58' E 013°16'1019.6
2017-Oct-16 01:00N 45°06' E 013°09'1019.5
2017-Oct-16 00:30N 45°15' E 013°04'917.9
2017-Oct-16 00:00N 45°24' E 013°06'1019.5
2017-Oct-15 23:30N 45°30' E 013°16'1019.0
2017-Oct-15 23:00N 45°36' E 013°27'918.9
2017-Oct-15 22:30N 45°39' E 013°40'4 7.0
2017-Oct-15 22:00N 45°39' E 013°45'0 0.0
2017-Oct-15 21:29N 45°39' E 013°45'0 0.0
2017-Oct-15 20:53N 45°39' E 013°45'0 0.0
2017-Oct-15 20:29N 45°39' E 013°45'0 0.0
2017-Oct-15 19:59N 45°39' E 013°45'0 0.0
2017-Oct-15 19:26N 45°39' E 013°45'0 0.0
2017-Oct-15 18:58N 45°39' E 013°45'0 0.0
2017-Oct-15 18:22N 45°39' E 013°45'0 0.0
2017-Oct-15 17:58N 45°39' E 013°45'0 0.0
2017-Oct-15 17:28N 45°39' E 013°45'0 0.0
2017-Oct-15 17:00N 45°39' E 013°45'0 0.0
2017-Oct-15 16:30N 45°39' E 013°45'0 0.0
2017-Oct-15 15:57N 45°39' E 013°45'0 0.0
2017-Oct-15 15:27N 45°39' E 013°45'0 0.0
2017-Oct-15 15:00N 45°39' E 013°45'0 0.0
2017-Oct-15 13:59N 45°39' E 013°45'0 0.0
2017-Oct-15 13:23N 45°39' E 013°45'0 0.0
2017-Oct-15 12:53N 45°39' E 013°45'0 0.0
2017-Oct-15 12:29N 45°39' E 013°45'0 0.0
2017-Oct-15 11:55N 45°39' E 013°45'0 0.0
2017-Oct-15 11:28N 45°39' E 013°45'0 0.0
2017-Oct-15 10:58N 45°39' E 013°45'0 0.0
2017-Oct-15 10:28N 45°39' E 013°45'0 0.0
2017-Oct-15 10:00N 45°39' E 013°45'0 0.0
2017-Oct-15 09:30N 45°39' E 013°45'0 0.0
2017-Oct-15 09:00N 45°39' E 013°45'0 0.0
2017-Oct-15 08:30N 45°39' E 013°45'0 0.0
2017-Oct-15 08:00N 45°39' E 013°45'0 0.0
2017-Oct-15 07:29N 45°39' E 013°45'0 0.1
2017-Oct-15 07:00N 45°39' E 013°45'4 8.8
2017-Oct-15 06:30N 45°38' E 013°39'1019.1
2017-Oct-15 06:00N 45°33' E 013°28'1019.8
2017-Oct-15 05:30N 45°26' E 013°18'1018.9
2017-Oct-15 05:00N 45°16' E 013°15'1020.1
2017-Oct-15 04:30N 45°07' E 013°18'1020.1
2017-Oct-15 04:00N 44°58' E 013°24'1020.2
2017-Oct-15 03:30N 44°49' E 013°32'1020.2
2017-Oct-15 03:00N 44°40' E 013°39'1020.3
2017-Oct-15 02:30N 44°32' E 013°47'1020.3
2017-Oct-15 02:00N 44°23' E 013°54'1020.5
2017-Oct-15 01:30N 44°15' E 014°02'1020.4
2017-Oct-15 01:00N 44°07' E 014°10'1020.3
2017-Oct-15 00:30N 43°59' E 014°20'1020.2
2017-Oct-15 00:00N 43°52' E 014°30'1020.3
2017-Oct-14 23:30N 43°45' E 014°40'1020.1
2017-Oct-14 22:59N 43°37' E 014°50'1020.2
2017-Oct-14 22:30N 43°30' E 014°59'1019.9
2017-Oct-14 22:00N 43°23' E 015°09'1920.2
2017-Oct-14 21:04N 43°10' E 015°27'520.3
2017-Oct-14 20:50N 43°07' E 015°32'720.4
2017-Oct-14 20:29N 43°01' E 015°39'1220.5
2017-Oct-14 19:53N 42°52' E 015°50'24019.7
2017-Oct-14 07:41N 39°46' E 019°12'719.7
2017-Oct-14 07:19N 39°40' E 019°17'619.8
2017-Oct-14 07:00N 39°34' E 019°20'1019.8
2017-Oct-14 06:30N 39°26' E 019°26'2819.9
2017-Oct-14 05:06N 39°01' E 019°43'320.1
2017-Oct-14 04:59N 38°58' E 019°44'53918.5
2017-Oct-12 23:52N 36°07' E 030°29'  

Dump ship's entire track history